createdAt,value
2024-03-08T00:00:14.387Z,100627.25
2024-03-08T00:02:55.291Z,100629.94
2024-03-08T00:05:22.767Z,100628.41
2024-03-08T00:07:49.693Z,100626.94
2024-03-08T00:10:18.112Z,100623.22
2024-03-08T00:12:47.497Z,100623.84
2024-03-08T00:15:17.605Z,100622.56
2024-03-08T00:17:46.628Z,100627.56
2024-03-08T00:20:14.812Z,100637.03
2024-03-08T00:22:42.129Z,100626.69
2024-03-08T00:25:13.418Z,100626.94
2024-03-08T00:27:40.565Z,100631.06
2024-03-08T00:30:08.381Z,100628.97
2024-03-08T00:32:35.554Z,100622.03
2024-03-08T00:35:02.880Z,100620.00
2024-03-08T00:37:29.851Z,100609.56
2024-03-08T00:39:56.813Z,100615.06
2024-03-08T00:42:24.224Z,100602.94
2024-03-08T00:44:52.795Z,100606.66
2024-03-08T00:47:20.497Z,100602.97
2024-03-08T00:49:47.977Z,100606.69
2024-03-08T00:52:16.010Z,100597.22
2024-03-08T00:54:44.908Z,100592.66
2024-03-08T00:57:13.158Z,100573.81
2024-03-08T00:59:40.491Z,100565.78
2024-03-08T01:02:07.678Z,100565.34
2024-03-08T01:04:34.696Z,100548.16
2024-03-08T01:07:02.057Z,100542.59
2024-03-08T01:09:29.553Z,100554.53
2024-03-08T01:11:56.732Z,100557.00
2024-03-08T01:14:24.901Z,100554.34
2024-03-08T01:16:51.974Z,100544.47
2024-03-08T01:19:19.146Z,100544.69
2024-03-08T01:21:46.132Z,100542.22
2024-03-08T01:24:13.291Z,100536.84
2024-03-08T01:26:40.443Z,100525.75
2024-03-08T01:29:07.356Z,100517.94
2024-03-08T01:31:34.815Z,100515.06
2024-03-08T01:34:01.690Z,100510.16
2024-03-08T01:36:28.580Z,100502.38
2024-03-08T01:38:55.657Z,100501.97
2024-03-08T01:41:22.607Z,100505.88
2024-03-08T01:43:51.385Z,100486.78
2024-03-08T01:46:20.632Z,100490.88
2024-03-08T01:48:47.966Z,100485.31
2024-03-08T01:51:16.451Z,100478.94
2024-03-08T01:53:47.165Z,100462.94
2024-03-08T01:56:15.656Z,100458.19
2024-03-08T01:58:48.078Z,100454.31
2024-03-08T02:01:16.646Z,100451.22
2024-03-08T02:03:46.078Z,100426.38
2024-03-08T02:06:15.966Z,100408.69
2024-03-08T02:08:47.121Z,100388.38
2024-03-08T02:11:15.363Z,100378.72
2024-03-08T02:13:42.779Z,100377.06
2024-03-08T02:16:10.104Z,100368.66
2024-03-08T02:18:38.288Z,100366.63
2024-03-08T02:21:07.340Z,100361.06
2024-03-08T02:23:35.170Z,100347.50
2024-03-08T02:26:02.402Z,100328.81
2024-03-08T02:28:32.027Z,100345.47
2024-03-08T02:30:59.252Z,100339.91
2024-03-08T02:33:28.431Z,100340.75
2024-03-08T02:35:56.751Z,100336.84
2024-03-08T02:38:26.052Z,100322.47
2024-03-08T02:40:54.607Z,100329.84
2024-03-08T02:43:26.129Z,100328.59
2024-03-08T02:45:56.306Z,100317.53
2024-03-08T02:48:23.860Z,100315.88
2024-03-08T02:50:52.530Z,100302.56
2024-03-08T02:53:23.446Z,100296.78
2024-03-08T02:55:50.748Z,100292.88
2024-03-08T02:58:17.727Z,100285.50
2024-03-08T03:00:45.778Z,100282.63
2024-03-08T03:03:13.227Z,100280.97
2024-03-08T03:05:45.337Z,100267.00
2024-03-08T03:08:14.540Z,100261.06
2024-03-08T03:10:41.508Z,100244.44
2024-03-08T03:13:10.002Z,100241.34
2024-03-08T03:15:37.922Z,100234.56
2024-03-08T03:18:09.218Z,100229.66
2024-03-08T03:20:42.041Z,100233.34
2024-03-08T03:23:16.450Z,100225.97
2024-03-08T03:25:44.178Z,100217.34
2024-03-08T03:28:12.467Z,100195.78
2024-03-08T03:30:40.391Z,100173.84
2024-03-08T03:33:11.386Z,100140.16
2024-03-08T03:35:39.168Z,100112.25
2024-03-08T03:38:10.523Z,100094.66
2024-03-08T03:40:41.041Z,100112.69
2024-03-08T03:43:08.853Z,100137.13
2024-03-08T03:45:37.409Z,100149.19
2024-03-08T03:48:11.306Z,100155.75
2024-03-08T03:50:39.753Z,100158.03
2024-03-08T03:53:10.743Z,100169.94
2024-03-08T03:55:40.845Z,100178.16
2024-03-08T03:58:11.511Z,100179.16
2024-03-08T04:00:39.136Z,100177.94
2024-03-08T04:03:06.272Z,100158.84
2024-03-08T04:05:33.310Z,100150.84
2024-03-08T04:08:00.185Z,100145.31
2024-03-08T04:10:27.035Z,100142.66
2024-03-08T04:12:53.899Z,100144.91
2024-03-08T04:15:21.871Z,100139.34
2024-03-08T04:17:48.934Z,100127.06
2024-03-08T04:20:16.506Z,100127.25
2024-03-08T04:22:45.511Z,100120.47
2024-03-08T04:25:12.588Z,100135.25
2024-03-08T04:27:39.577Z,100123.16
2024-03-08T04:30:09.024Z,100109.22
2024-03-08T04:32:36.892Z,100112.09
2024-03-08T04:35:04.945Z,100119.88
2024-03-08T04:37:32.270Z,100108.78
2024-03-08T04:39:59.731Z,100104.69
2024-03-08T04:42:31.139Z,100113.53
2024-03-08T04:44:58.681Z,100098.13
2024-03-08T04:47:26.356Z,100098.75
2024-03-08T04:49:53.440Z,100106.31
2024-03-08T04:52:20.340Z,100104.72
2024-03-08T04:54:47.226Z,100093.19
2024-03-08T04:57:14.322Z,100088.72
2024-03-08T04:59:41.399Z,100091.75
2024-03-08T05:02:08.678Z,100092.19
2024-03-08T05:04:36.456Z,100085.81
2024-03-08T05:07:03.711Z,100086.84
2024-03-08T05:09:32.974Z,100082.31
2024-03-08T05:12:00.401Z,100078.81
2024-03-08T05:14:27.378Z,100066.09
2024-03-08T05:16:54.447Z,100068.56
2024-03-08T05:19:22.337Z,100055.63
2024-03-08T05:21:50.843Z,100040.22
2024-03-08T05:24:19.181Z,100056.84
2024-03-08T05:26:47.976Z,100053.97
2024-03-08T05:29:15.894Z,100042.88
2024-03-08T05:31:51.124Z,100036.97
2024-03-08T05:34:18.387Z,100038.34
2024-03-08T05:36:46.228Z,100043.09
2024-03-08T05:39:15.863Z,100033.44
2024-03-08T05:41:47.018Z,100045.53
2024-03-08T05:44:14.785Z,100050.88
2024-03-08T05:46:41.757Z,100046.56
2024-03-08T05:49:11.427Z,100044.91
2024-03-08T05:51:40.524Z,100055.38
2024-03-08T05:54:13.429Z,100056.19
2024-03-08T05:56:45.956Z,100049.84
2024-03-08T05:59:14.444Z,100052.25
2024-03-08T06:01:43.226Z,100040.97
2024-03-08T06:04:12.730Z,100033.34
2024-03-08T06:06:41.197Z,100029.47
2024-03-08T06:09:12.243Z,100024.53
2024-03-08T06:11:39.484Z,100032.53
2024-03-08T06:14:07.687Z,100041.56
2024-03-08T06:16:35.033Z,100031.75
2024-03-08T06:19:03.927Z,100035.44
2024-03-08T06:21:30.841Z,100037.44
2024-03-08T06:23:59.287Z,100040.13
2024-03-08T06:26:30.699Z,100050.56
2024-03-08T06:28:59.091Z,100042.56
2024-03-08T06:31:26.230Z,100044.84
2024-03-08T06:33:56.254Z,100035.41
2024-03-08T06:36:24.093Z,100038.09
2024-03-08T06:38:51.417Z,100038.66
2024-03-08T06:41:18.581Z,100049.78
2024-03-08T06:43:46.764Z,100053.66
2024-03-08T06:46:14.203Z,100045.44
2024-03-08T06:48:41.467Z,100048.28
2024-03-08T06:51:08.992Z,100046.22
2024-03-08T06:53:39.902Z,100058.75
2024-03-08T06:56:09.175Z,100061.00
2024-03-08T06:58:36.833Z,100065.53
2024-03-08T07:01:05.655Z,100066.34
2024-03-08T07:03:33.783Z,100078.03
2024-03-08T07:06:03.606Z,100075.13
2024-03-08T07:08:31.235Z,100078.44
2024-03-08T07:10:59.737Z,100087.03
2024-03-08T07:13:28.496Z,100084.78
2024-03-08T07:15:56.368Z,100086.44
2024-03-08T07:18:23.441Z,100087.06
2024-03-08T07:20:53.152Z,100083.00
2024-03-08T07:23:38.841Z,100092.63
2024-03-08T07:26:05.842Z,100092.81
2024-03-08T07:28:32.747Z,100088.50
2024-03-08T07:31:18.321Z,100096.75
2024-03-08T07:33:45.774Z,100090.81
2024-03-08T07:36:13.237Z,100096.53
2024-03-08T07:38:40.401Z,100094.47
2024-03-08T07:41:07.404Z,100097.38
2024-03-08T07:43:34.520Z,100091.81
2024-03-08T07:46:01.640Z,100102.63
2024-03-08T07:48:28.632Z,100106.72
2024-03-08T07:50:55.820Z,100106.94
2024-03-08T07:53:22.920Z,100083.28
2024-03-08T07:55:49.953Z,100097.66
2024-03-08T07:58:18.592Z,100107.13
2024-03-08T08:00:45.504Z,100110.41
2024-03-08T08:03:13.718Z,100126.38
2024-03-08T08:05:40.850Z,100116.97
2024-03-08T08:08:11.579Z,100124.59
2024-03-08T08:10:39.082Z,100118.84
2024-03-08T08:13:06.373Z,100127.41
2024-03-08T08:15:35.591Z,100119.31
2024-03-08T08:18:04.102Z,100117.41
2024-03-08T08:20:31.169Z,100108.81
2024-03-08T08:23:00.194Z,100111.22
2024-03-08T08:25:27.326Z,100118.41
2024-03-08T08:27:54.969Z,100125.19
2024-03-08T08:30:22.023Z,100103.72
2024-03-08T08:32:50.044Z,100115.19
2024-03-08T08:35:17.703Z,100129.94
2024-03-08T08:37:45.599Z,100130.53
2024-03-08T08:40:16.373Z,100124.81
2024-03-08T08:42:43.951Z,100139.00
2024-03-08T08:45:16.197Z,100120.84
2024-03-08T08:47:48.325Z,100127.47
2024-03-08T08:50:15.364Z,100118.84
2024-03-08T08:52:44.989Z,100116.94
2024-03-08T08:55:16.217Z,100115.47
2024-03-08T08:57:43.933Z,100114.63
2024-03-08T09:00:16.468Z,100117.38
2024-03-08T09:02:44.523Z,100122.34
2024-03-08T09:05:12.789Z,100125.56
2024-03-08T09:07:40.299Z,100120.78
2024-03-08T09:10:17.129Z,100116.81
2024-03-08T09:12:46.133Z,100127.16
2024-03-08T09:15:13.710Z,100130.72
2024-03-08T09:17:42.055Z,100121.06
2024-03-08T09:20:11.608Z,100121.69
2024-03-08T09:22:38.954Z,100124.31
2024-03-08T09:25:06.486Z,100128.25
2024-03-08T09:27:33.459Z,100128.38
2024-03-08T09:30:00.304Z,100137.63
2024-03-08T09:32:27.798Z,100139.75
2024-03-08T09:34:55.017Z,100141.56
2024-03-08T09:37:21.944Z,100140.31
2024-03-08T09:39:49.468Z,100136.97
2024-03-08T09:42:17.589Z,100140.91
2024-03-08T09:44:48.404Z,100144.06
2024-03-08T09:47:16.253Z,100148.19
2024-03-08T09:49:44.539Z,100136.53
2024-03-08T09:52:13.673Z,100148.06
2024-03-08T09:54:41.348Z,100145.84
2024-03-08T09:57:10.303Z,100148.84
2024-03-08T09:59:37.360Z,100153.72
2024-03-08T10:02:04.625Z,100155.75
2024-03-08T10:04:34.561Z,100160.03
2024-03-08T10:07:03.004Z,100158.41
2024-03-08T10:09:29.952Z,100161.50
2024-03-08T10:12:00.199Z,100152.25
2024-03-08T10:14:27.887Z,100154.50
2024-03-08T10:16:55.298Z,100160.16
2024-03-08T10:19:25.322Z,100164.09
2024-03-08T10:21:54.878Z,100166.53
2024-03-08T10:24:21.842Z,100157.69
2024-03-08T10:26:48.954Z,100166.47
2024-03-08T10:29:18.834Z,100167.28
2024-03-08T10:31:48.611Z,100157.03
2024-03-08T10:34:15.706Z,100157.56
2024-03-08T10:36:42.707Z,100158.88
2024-03-08T10:39:26.005Z,100159.44
2024-03-08T10:42:02.870Z,100164.63
2024-03-08T10:44:41.750Z,100153.59
2024-03-08T10:47:31.406Z,100152.31
2024-03-08T10:50:24.037Z,100145.31
2024-03-08T10:52:52.745Z,100148.84
2024-03-08T10:55:23.829Z,100140.09
2024-03-08T10:57:50.852Z,100152.00
2024-03-08T11:00:20.139Z,100146.59
2024-03-08T11:02:47.354Z,100149.72
2024-03-08T11:05:41.603Z,100145.81
2024-03-08T11:08:22.467Z,100162.44
2024-03-08T11:10:55.184Z,100153.94
2024-03-08T11:13:42.031Z,100156.38
2024-03-08T11:16:13.734Z,100156.38
2024-03-08T11:18:41.029Z,100155.34
2024-03-08T11:21:14.131Z,100153.13
2024-03-08T11:23:41.382Z,100154.16
2024-03-08T11:26:26.226Z,100146.69
2024-03-08T11:28:54.651Z,100137.53
2024-03-08T11:31:27.010Z,100128.25
2024-03-08T11:33:55.454Z,100127.44
2024-03-08T11:36:25.387Z,100126.28
2024-03-08T11:38:54.140Z,100130.47
2024-03-08T11:41:23.024Z,100133.25
2024-03-08T11:43:51.653Z,100131.25
2024-03-08T11:46:19.391Z,100123.50
2024-03-08T11:48:49.251Z,100119.59
2024-03-08T11:51:20.045Z,100111.66
2024-03-08T11:53:48.471Z,100109.53
2024-03-08T11:56:16.878Z,100105.16
2024-03-08T11:58:54.774Z,100114.41
2024-03-08T12:01:21.860Z,100111.69
2024-03-08T12:04:00.114Z,100104.03
2024-03-08T12:06:28.625Z,100102.03
2024-03-08T12:08:55.583Z,100098.59
2024-03-08T12:11:24.989Z,100091.19
2024-03-08T12:13:53.265Z,100094.53
2024-03-08T12:16:20.909Z,100078.72
2024-03-08T12:18:48.002Z,100087.75
2024-03-08T12:21:18.685Z,100081.97
2024-03-08T12:23:45.876Z,100089.59
2024-03-08T12:26:24.560Z,100087.97
2024-03-08T12:28:51.725Z,100072.13
2024-03-08T12:31:18.995Z,100072.63
2024-03-08T12:33:56.373Z,100064.47
2024-03-08T12:36:24.832Z,100057.59
2024-03-08T12:38:52.347Z,100065.03
2024-03-08T12:41:20.509Z,100058.66
2024-03-08T12:43:51.315Z,100066.72
2024-03-08T12:46:22.293Z,100060.22
2024-03-08T12:48:49.610Z,100060.38
2024-03-08T12:51:19.416Z,100053.91
2024-03-08T12:53:49.528Z,100053.03
2024-03-08T12:56:29.688Z,100054.56
2024-03-08T12:58:57.962Z,100041.53
2024-03-08T13:01:25.407Z,100058.16
2024-03-08T13:03:52.417Z,100048.22
2024-03-08T13:06:20.742Z,100050.81
2024-03-08T13:08:49.002Z,100051.31
2024-03-08T13:11:16.108Z,100051.38
2024-03-08T13:13:43.343Z,100059.94
2024-03-08T13:16:10.336Z,100050.41
2024-03-08T13:18:37.642Z,100045.94
2024-03-08T13:21:09.460Z,100040.41
2024-03-08T13:23:46.605Z,100037.53
2024-03-08T13:26:16.252Z,100036.41
2024-03-08T13:28:54.815Z,100033.47
2024-03-08T13:31:22.515Z,100025.03
2024-03-08T13:33:49.690Z,100033.88
2024-03-08T13:36:17.253Z,100039.06
2024-03-08T13:38:44.982Z,100037.19
2024-03-08T13:41:13.189Z,100024.88
2024-03-08T13:43:41.260Z,100027.41
2024-03-08T13:46:08.776Z,100027.41
2024-03-08T13:48:35.660Z,100031.28
2024-03-08T13:51:02.589Z,100031.69
2024-03-08T13:53:29.468Z,100024.31
2024-03-08T13:55:57.783Z,100014.31
2024-03-08T13:58:25.030Z,100010.69
2024-03-08T14:00:52.856Z,100004.72
2024-03-08T14:03:19.824Z,100012.63
2024-03-08T14:05:48.023Z,100006.66
2024-03-08T14:08:15.217Z,100012.47
2024-03-08T14:10:43.690Z,100010.28
2024-03-08T14:13:12.956Z,100005.41
2024-03-08T14:15:43.445Z,100017.97
2024-03-08T14:18:10.470Z,100019.91
2024-03-08T14:20:37.383Z,100019.59
2024-03-08T14:23:07.648Z,100016.47
2024-03-08T14:25:35.102Z,100017.53
2024-03-08T14:28:08.700Z,100022.94
2024-03-08T14:30:36.727Z,100027.28
2024-03-08T14:33:04.381Z,100023.66
2024-03-08T14:35:31.339Z,100032.28
2024-03-08T14:37:58.969Z,100027.28
2024-03-08T14:40:27.310Z,100031.59
2024-03-08T14:42:54.788Z,100034.63
2024-03-08T14:45:21.810Z,100039.84
2024-03-08T14:47:52.004Z,100036.38
2024-03-08T14:50:26.638Z,100041.66
2024-03-08T14:52:54.152Z,100042.28
2024-03-08T14:55:26.398Z,100050.59
2024-03-08T14:57:54.709Z,100060.00
2024-03-08T15:00:28.434Z,100070.06
2024-03-08T15:02:55.905Z,100063.53
2024-03-08T15:05:27.686Z,100056.28
2024-03-08T15:07:55.437Z,100065.31
2024-03-08T15:10:25.941Z,100064.84
2024-03-08T15:12:57.181Z,100065.09
2024-03-08T15:15:25.897Z,100072.00
2024-03-08T15:17:55.414Z,100066.75
2024-03-08T15:20:30.054Z,100071.50
2024-03-08T15:23:00.187Z,100075.34
2024-03-08T15:25:27.693Z,100087.94
2024-03-08T15:27:55.086Z,100078.13
2024-03-08T15:30:32.290Z,100085.22
2024-03-08T15:33:01.553Z,100089.03
2024-03-08T15:35:28.543Z,100091.28
2024-03-08T15:37:59.032Z,100081.56
2024-03-08T15:40:26.519Z,100083.91
2024-03-08T15:42:55.866Z,100096.16
2024-03-08T15:45:30.769Z,100102.63
2024-03-08T15:47:57.850Z,100099.94
2024-03-08T15:50:25.094Z,100099.66
2024-03-08T15:52:55.588Z,100097.94
2024-03-08T15:55:26.547Z,100099.00
2024-03-08T15:57:55.218Z,100092.97
2024-03-08T16:00:37.513Z,100083.53
2024-03-08T16:03:07.736Z,100087.28
2024-03-08T16:05:35.695Z,100093.53
2024-03-08T16:08:02.909Z,100083.06
2024-03-08T16:10:30.596Z,100085.25
2024-03-08T16:12:58.318Z,100077.78
2024-03-08T16:15:27.243Z,100075.59
2024-03-08T16:17:54.684Z,100075.72
2024-03-08T16:20:22.889Z,100072.25
2024-03-08T16:22:53.228Z,100075.63
2024-03-08T16:25:21.622Z,100070.16
2024-03-08T16:27:48.757Z,100072.63
2024-03-08T16:30:18.707Z,100069.56
2024-03-08T16:32:50.369Z,100071.44
2024-03-08T16:35:19.944Z,100074.59
2024-03-08T16:37:48.493Z,100075.31
2024-03-08T16:40:18.881Z,100069.59
2024-03-08T16:42:46.154Z,100079.75
2024-03-08T16:45:15.601Z,100074.16
2024-03-08T16:47:43.631Z,100069.72
2024-03-08T16:50:14.285Z,100066.47
2024-03-08T16:52:41.411Z,100066.22
2024-03-08T16:55:14.704Z,100066.13
2024-03-08T16:57:45.600Z,100071.59
2024-03-08T17:00:19.645Z,100067.25
2024-03-08T17:02:49.413Z,100060.56
2024-03-08T17:05:20.377Z,100071.41
2024-03-08T17:07:49.882Z,100072.31
2024-03-08T17:10:20.595Z,100061.59
2024-03-08T17:12:51.261Z,100067.00
2024-03-08T17:15:24.211Z,100071.84
2024-03-08T17:17:54.150Z,100076.38
2024-03-08T17:20:23.418Z,100072.88
2024-03-08T17:22:55.449Z,100073.94
2024-03-08T17:25:26.351Z,100071.22
2024-03-08T17:27:56.305Z,100067.09
2024-03-08T17:30:25.248Z,100077.28
2024-03-08T17:33:05.871Z,100085.94
2024-03-08T17:35:35.495Z,100080.03
2024-03-08T17:38:11.531Z,100085.84
2024-03-08T17:40:41.051Z,100090.75
2024-03-08T17:43:12.532Z,100089.22
2024-03-08T17:45:43.959Z,100097.50
2024-03-08T17:48:14.164Z,100099.31
2024-03-08T17:50:42.851Z,100100.75
2024-03-08T17:53:17.241Z,100103.50
2024-03-08T17:55:46.008Z,100109.09
2024-03-08T17:58:16.166Z,100104.91
2024-03-08T18:00:45.006Z,100116.47
2024-03-08T18:03:15.956Z,100112.59
2024-03-08T18:05:45.050Z,100119.00
2024-03-08T18:08:12.837Z,100135.28
2024-03-08T18:10:42.447Z,100135.75
2024-03-08T18:13:20.904Z,100142.66
2024-03-08T18:15:48.751Z,100151.25
2024-03-08T18:18:16.918Z,100149.25
2024-03-08T18:20:50.615Z,100150.81
2024-03-08T18:23:22.421Z,100141.97
2024-03-08T18:25:50.699Z,100158.09
2024-03-08T18:28:18.641Z,100149.72
2024-03-08T18:30:50.059Z,100148.16
2024-03-08T18:33:17.665Z,100147.00
2024-03-08T18:35:45.499Z,100152.34
2024-03-08T18:38:13.263Z,100161.59
2024-03-08T18:40:47.080Z,100169.16
2024-03-08T18:43:14.469Z,100170.00
2024-03-08T18:45:43.518Z,100177.66
2024-03-08T18:48:12.927Z,100165.28
2024-03-08T18:50:40.945Z,100173.31
2024-03-08T18:53:09.181Z,100174.78
2024-03-08T18:55:36.505Z,100173.75
2024-03-08T18:58:04.226Z,100177.72
2024-03-08T19:00:35.967Z,100172.38
2024-03-08T19:03:14.810Z,100168.28
2024-03-08T19:05:43.382Z,100181.25
2024-03-08T19:08:15.266Z,100186.16
2024-03-08T19:10:43.738Z,100184.34
2024-03-08T19:13:13.634Z,100181.47
2024-03-08T19:15:44.305Z,100180.00
2024-03-08T19:18:12.594Z,100180.00
2024-03-08T19:20:39.902Z,100188.66
2024-03-08T19:23:07.909Z,100178.38
2024-03-08T19:25:36.908Z,100189.88
2024-03-08T19:28:07.030Z,100187.28
2024-03-08T19:30:37.690Z,100188.06
2024-03-08T19:33:13.845Z,100192.88
2024-03-08T19:35:42.176Z,100190.13
2024-03-08T19:38:15.595Z,100184.78
2024-03-08T19:40:44.188Z,100184.63
2024-03-08T19:43:18.543Z,100180.72
2024-03-08T19:45:46.633Z,100185.25
2024-03-08T19:48:22.061Z,100191.66
2024-03-08T19:50:51.068Z,100193.28
2024-03-08T19:53:19.120Z,100191.28
2024-03-08T19:55:54.179Z,100179.75
2024-03-08T19:58:22.944Z,100189.22
2024-03-08T20:00:50.925Z,100185.25
2024-03-08T20:03:22.511Z,100186.53
2024-03-08T20:05:52.800Z,100179.75
2024-03-08T20:08:22.817Z,100174.19
2024-03-08T20:10:49.895Z,100177.94
2024-03-08T20:13:20.330Z,100178.34
2024-03-08T20:15:53.822Z,100168.25
2024-03-08T20:18:26.350Z,100161.44
2024-03-08T20:20:55.344Z,100160.66
2024-03-08T20:23:24.522Z,100165.59
2024-03-08T20:25:52.230Z,100155.72
2024-03-08T20:28:22.498Z,100156.59
2024-03-08T20:30:49.484Z,100154.34
2024-03-08T20:33:17.524Z,100163.78
2024-03-08T20:35:51.041Z,100162.97
2024-03-08T20:38:22.222Z,100162.75
2024-03-08T20:40:51.406Z,100158.91
2024-03-08T20:43:24.453Z,100162.06
2024-03-08T20:45:51.634Z,100156.31
2024-03-08T20:48:21.504Z,100160.22
2024-03-08T20:50:50.827Z,100162.09
2024-03-08T20:53:18.494Z,100159.63
2024-03-08T20:55:46.072Z,100164.34
2024-03-08T20:58:14.437Z,100159.66
2024-03-08T21:00:42.110Z,100161.53
2024-03-08T21:03:20.101Z,100163.19
2024-03-08T21:05:51.623Z,100159.47
2024-03-08T21:08:25.565Z,100164.22
2024-03-08T21:10:54.739Z,100168.56
2024-03-08T21:13:24.658Z,100157.25
2024-03-08T21:15:54.009Z,100148.66
2024-03-08T21:18:22.595Z,100147.22
2024-03-08T21:20:50.357Z,100149.69
2024-03-08T21:23:17.437Z,100151.16
2024-03-08T21:25:44.830Z,100150.34
2024-03-08T21:28:12.665Z,100149.13
2024-03-08T21:30:40.796Z,100154.47
2024-03-08T21:33:12.369Z,100146.66
2024-03-08T21:35:40.675Z,100154.88
2024-03-08T21:38:08.798Z,100156.75
2024-03-08T21:40:53.134Z,100157.38
2024-03-08T21:43:28.391Z,100143.84
2024-03-08T21:45:55.905Z,100139.13
2024-03-08T21:48:23.513Z,100142.41
2024-03-08T21:50:51.275Z,100136.47
2024-03-08T21:53:27.424Z,100137.50
2024-03-08T21:56:00.874Z,100147.16
2024-03-08T21:58:28.253Z,100142.84
2024-03-08T22:00:55.233Z,100141.63
2024-03-08T22:03:23.677Z,100151.44
2024-03-08T22:05:53.974Z,100151.22
2024-03-08T22:08:21.127Z,100148.72
2024-03-08T22:10:48.280Z,100140.16
2024-03-08T22:13:16.228Z,100137.47
2024-03-08T22:15:49.587Z,100131.50
2024-03-08T22:18:16.964Z,100133.97
2024-03-08T22:20:47.200Z,100144.47
2024-03-08T22:23:16.383Z,100146.50
2024-03-08T22:25:43.749Z,100147.31
2024-03-08T22:28:11.204Z,100149.38
2024-03-08T22:30:38.384Z,100150.19
2024-03-08T22:33:05.587Z,100152.25
2024-03-08T22:35:34.668Z,100153.69
2024-03-08T22:38:01.600Z,100147.94
2024-03-08T22:40:28.731Z,100150.81
2024-03-08T22:42:56.414Z,100154.91
2024-03-08T22:45:25.049Z,100161.22
2024-03-08T22:47:52.553Z,100149.34
2024-03-08T22:50:19.912Z,100144.63
2024-03-08T22:52:49.646Z,100137.22
2024-03-08T22:55:21.657Z,100142.16
2024-03-08T22:57:50.024Z,100140.25
2024-03-08T23:00:38.272Z,100138.03
2024-03-08T23:03:11.596Z,100146.81
2024-03-08T23:05:42.268Z,100150.09
2024-03-08T23:08:09.438Z,100147.22
2024-03-08T23:10:40.246Z,100142.22
2024-03-08T23:13:10.463Z,100135.06
2024-03-08T23:15:43.578Z,100141.41
2024-03-08T23:18:14.626Z,100142.41
2024-03-08T23:20:45.060Z,100144.25
2024-03-08T23:23:13.068Z,100139.09
2024-03-08T23:25:41.509Z,100147.50
2024-03-08T23:28:10.326Z,100152.84
2024-03-08T23:30:45.584Z,100145.06
2024-03-08T23:33:14.823Z,100141.59
2024-03-08T23:35:44.825Z,100141.00
2024-03-08T23:38:12.085Z,100138.31
2024-03-08T23:40:41.395Z,100137.28
2024-03-08T23:43:11.789Z,100143.25
2024-03-08T23:45:41.763Z,100143.78
2024-03-08T23:48:08.884Z,100151.41
2024-03-08T23:50:38.584Z,100144.03
2024-03-08T23:53:09.314Z,100136.22
2024-03-08T23:55:39.283Z,100138.44
2024-03-08T23:58:11.870Z,100140.28
